createdAt,value
2022-09-09T00:02:30.808Z,13.47
2022-09-09T00:05:14.580Z,13.60
2022-09-09T00:07:49.516Z,13.41
2022-09-09T00:10:27.585Z,13.15
2022-09-09T00:13:03.700Z,13.11
2022-09-09T00:15:42.215Z,13.30
2022-09-09T00:18:25.126Z,13.28
2022-09-09T00:21:03.955Z,13.14
2022-09-09T00:23:34.927Z,13.08
2022-09-09T00:26:13.913Z,13.11
2022-09-09T00:28:52.202Z,13.17
2022-09-09T00:31:27.429Z,13.27
2022-09-09T00:34:03.754Z,13.15
2022-09-09T00:36:35.646Z,13.00
2022-09-09T00:39:06.246Z,12.96
2022-09-09T00:41:59.788Z,13.14
2022-09-09T00:44:36.172Z,13.12
2022-09-09T00:47:31.854Z,13.08
2022-09-09T00:50:13.003Z,13.07
2022-09-09T00:52:51.239Z,12.94
2022-09-09T00:55:30.309Z,12.87
2022-09-09T00:57:59.880Z,12.74
2022-09-09T01:00:31.743Z,12.71
2022-09-09T01:03:25.434Z,12.61
2022-09-09T01:06:05.576Z,12.47
2022-09-09T01:08:58.854Z,12.35
2022-09-09T01:11:36.117Z,12.35
2022-09-09T01:14:26.442Z,12.24
2022-09-09T01:16:58.771Z,12.24
2022-09-09T01:19:43.144Z,12.25
2022-09-09T01:22:26.014Z,12.25
2022-09-09T01:25:30.022Z,12.29
2022-09-09T01:28:19.963Z,12.21
2022-09-09T01:30:49.320Z,12.15
2022-09-09T01:33:21.466Z,12.08
2022-09-09T01:35:57.988Z,12.10
2022-09-09T01:38:33.946Z,12.13
2022-09-09T01:41:03.534Z,12.31
2022-09-09T01:43:47.258Z,12.61
2022-09-09T01:46:16.921Z,12.54
2022-09-09T01:48:47.670Z,12.50
2022-09-09T01:51:17.707Z,12.34
2022-09-09T01:53:48.870Z,12.04
2022-09-09T01:56:40.673Z,11.91
2022-09-09T01:59:31.310Z,11.85
2022-09-09T02:02:13.623Z,11.80
2022-09-09T02:04:52.677Z,11.82
2022-09-09T02:07:40.516Z,11.91
2022-09-09T02:10:26.983Z,12.02
2022-09-09T02:13:12.310Z,12.02
2022-09-09T02:15:49.522Z,12.02
2022-09-09T02:18:26.372Z,11.90
2022-09-09T02:20:58.636Z,12.09
2022-09-09T02:23:28.474Z,12.03
2022-09-09T02:26:00.810Z,12.04
2022-09-09T02:28:34.392Z,11.95
2022-09-09T02:31:04.996Z,11.88
2022-09-09T02:33:46.809Z,11.85
2022-09-09T02:36:18.192Z,11.91
2022-09-09T02:38:53.977Z,11.94
2022-09-09T02:41:33.674Z,12.04
2022-09-09T02:44:03.746Z,12.20
2022-09-09T02:46:52.682Z,12.26
2022-09-09T02:49:35.201Z,12.29
2022-09-09T02:52:09.937Z,12.09
2022-09-09T02:54:41.121Z,12.15
2022-09-09T02:57:20.218Z,12.16
2022-09-09T02:59:53.268Z,12.07
2022-09-09T03:02:24.038Z,11.89
2022-09-09T03:04:57.485Z,11.85
2022-09-09T03:07:26.529Z,11.85
2022-09-09T03:09:56.051Z,12.07
2022-09-09T03:12:28.052Z,12.08
2022-09-09T03:14:57.481Z,12.13
2022-09-09T03:17:29.093Z,12.20
2022-09-09T03:19:58.889Z,12.21
2022-09-09T03:22:28.270Z,12.31
2022-09-09T03:25:00.184Z,12.52
2022-09-09T03:27:30.575Z,12.53
2022-09-09T03:30:01.377Z,12.53
2022-09-09T03:32:33.415Z,12.49
2022-09-09T03:35:02.547Z,12.64
2022-09-09T03:37:32.770Z,12.55
2022-09-09T03:40:02.055Z,12.51
2022-09-09T03:42:31.968Z,12.46
2022-09-09T03:45:03.097Z,12.48
2022-09-09T03:47:34.629Z,12.44
2022-09-09T03:50:11.502Z,12.35
2022-09-09T03:52:45.893Z,12.34
2022-09-09T03:55:21.021Z,12.33
2022-09-09T03:57:50.716Z,12.51
2022-09-09T04:00:21.461Z,12.45
2022-09-09T04:02:58.795Z,12.42
2022-09-09T04:05:28.581Z,12.52
2022-09-09T04:07:57.789Z,12.53
2022-09-09T04:10:27.722Z,12.47
2022-09-09T04:12:58.092Z,12.38
2022-09-09T04:15:27.217Z,12.29
2022-09-09T04:17:58.113Z,12.48
2022-09-09T04:20:27.587Z,12.46
2022-09-09T04:22:57.440Z,12.49
2022-09-09T04:25:27.218Z,12.43
2022-09-09T04:27:57.322Z,12.46
2022-09-09T04:30:28.596Z,12.49
2022-09-09T04:32:59.576Z,12.42
2022-09-09T04:35:28.727Z,12.35
2022-09-09T04:37:58.997Z,12.30
2022-09-09T04:40:30.502Z,12.30
2022-09-09T04:43:00.825Z,12.25
2022-09-09T04:45:30.021Z,12.23
2022-09-09T04:48:00.517Z,12.33
2022-09-09T04:50:29.726Z,12.27
2022-09-09T04:53:03.776Z,12.38
2022-09-09T04:55:33.447Z,12.40
2022-09-09T04:58:06.953Z,12.36
2022-09-09T05:00:37.494Z,12.45
2022-09-09T05:03:10.969Z,12.50
2022-09-09T05:05:40.124Z,12.62
2022-09-09T05:08:11.124Z,12.61
2022-09-09T05:10:42.933Z,12.74
2022-09-09T05:13:12.378Z,12.72
2022-09-09T05:15:41.679Z,12.70
2022-09-09T05:18:12.203Z,12.74
2022-09-09T05:20:43.655Z,12.83
2022-09-09T05:23:14.382Z,12.94
2022-09-09T05:25:43.766Z,13.00
2022-09-09T05:28:12.821Z,13.10
2022-09-09T05:30:42.105Z,13.25
2022-09-09T05:33:12.619Z,13.29
2022-09-09T05:35:41.892Z,13.34
2022-09-09T05:38:11.019Z,13.46
2022-09-09T05:40:40.173Z,13.62
2022-09-09T05:43:09.692Z,13.75
2022-09-09T05:45:38.900Z,13.93
2022-09-09T05:48:08.908Z,13.84
2022-09-09T05:50:39.446Z,13.80
2022-09-09T05:53:08.816Z,13.88
2022-09-09T05:55:37.885Z,13.95
2022-09-09T05:58:07.235Z,13.98
2022-09-09T06:00:36.357Z,14.00
2022-09-09T06:03:05.921Z,13.98
2022-09-09T06:05:38.349Z,13.82
2022-09-09T06:08:09.012Z,13.99
2022-09-09T06:10:38.076Z,14.25
2022-09-09T06:13:07.205Z,14.44
2022-09-09T06:15:36.673Z,14.54
2022-09-09T06:18:06.392Z,14.67
2022-09-09T06:20:35.913Z,14.81
2022-09-09T06:23:06.237Z,14.80
2022-09-09T06:25:37.049Z,14.88
2022-09-09T06:28:06.049Z,15.02
2022-09-09T06:30:35.481Z,15.21
2022-09-09T06:33:04.824Z,15.27
2022-09-09T06:35:34.169Z,15.35
2022-09-09T06:38:03.446Z,15.49
2022-09-09T06:40:33.200Z,15.47
2022-09-09T06:43:04.000Z,15.50
2022-09-09T06:45:43.831Z,15.59
2022-09-09T06:48:13.014Z,15.72
2022-09-09T06:50:42.138Z,15.81
2022-09-09T06:53:11.574Z,16.01
2022-09-09T06:55:41.403Z,16.28
2022-09-09T06:58:12.450Z,16.44
2022-09-09T07:00:41.736Z,16.56
2022-09-09T07:03:12.948Z,16.62
2022-09-09T07:05:42.473Z,16.72
2022-09-09T07:08:12.949Z,16.76
2022-09-09T07:10:42.969Z,16.86
2022-09-09T07:13:14.891Z,16.96
2022-09-09T07:15:44.092Z,16.87
2022-09-09T07:18:13.849Z,16.95
2022-09-09T07:20:42.997Z,17.05
2022-09-09T07:23:12.549Z,17.00
2022-09-09T07:25:48.793Z,17.01
2022-09-09T07:28:21.013Z,17.06
2022-09-09T07:30:57.237Z,17.32
2022-09-09T07:33:27.489Z,17.47
2022-09-09T07:36:03.961Z,17.47
2022-09-09T07:38:33.274Z,17.43
2022-09-09T07:41:10.282Z,17.40
2022-09-09T07:43:41.975Z,17.42
2022-09-09T07:46:13.119Z,17.58
2022-09-09T07:48:47.318Z,17.76
2022-09-09T07:51:20.005Z,17.98
2022-09-09T07:53:54.621Z,18.13
2022-09-09T07:56:24.279Z,18.25
2022-09-09T07:58:57.398Z,18.52
2022-09-09T08:01:31.941Z,18.82
2022-09-09T08:04:06.903Z,18.92
2022-09-09T08:06:41.938Z,19.03
2022-09-09T08:09:13.094Z,19.20
2022-09-09T08:11:43.426Z,19.40
2022-09-09T08:14:16.254Z,19.51
2022-09-09T08:16:48.016Z,19.52
2022-09-09T08:19:20.892Z,19.60
2022-09-09T08:21:52.131Z,19.68
2022-09-09T08:24:22.483Z,19.87
2022-09-09T08:26:52.658Z,20.12
2022-09-09T08:29:27.247Z,20.39
2022-09-09T08:31:59.212Z,20.52
2022-09-09T08:34:32.641Z,20.61
2022-09-09T08:37:06.468Z,20.66
2022-09-09T08:39:41.541Z,20.81
2022-09-09T08:42:40.267Z,21.09
2022-09-09T08:45:26.681Z,21.43
2022-09-09T08:48:23.284Z,21.58
2022-09-09T08:50:54.244Z,21.83
2022-09-09T08:53:34.421Z,22.09
2022-09-09T08:56:10.571Z,22.23
2022-09-09T08:58:50.967Z,22.11
2022-09-09T09:01:44.622Z,22.11
2022-09-09T09:04:40.608Z,21.89
2022-09-09T09:07:29.514Z,21.93
2022-09-09T09:10:37.653Z,22.27
2022-09-09T09:13:03.161Z,22.67
2022-09-09T09:15:39.942Z,22.80
2022-09-09T09:18:17.085Z,22.60
2022-09-09T09:21:00.716Z,22.68
2022-09-09T09:23:41.918Z,23.03
2022-09-09T09:26:17.228Z,23.41
2022-09-09T09:28:48.425Z,23.37
2022-09-09T09:31:23.003Z,23.24
2022-09-09T09:33:57.429Z,23.23
2022-09-09T09:36:40.157Z,23.22
2022-09-09T09:42:15.074Z,23.38
2022-09-09T09:44:48.666Z,23.11
2022-09-09T09:47:24.410Z,22.89
2022-09-09T09:50:22.767Z,23.24
2022-09-09T09:55:39.075Z,23.33
2022-09-09T09:58:18.768Z,23.46
2022-09-09T10:00:54.308Z,23.03
2022-09-09T10:03:31.168Z,23.25
2022-09-09T10:06:03.287Z,23.72
2022-09-09T10:08:46.445Z,23.35
2022-09-09T10:11:32.638Z,23.92
2022-09-09T10:14:16.383Z,24.21
2022-09-09T10:17:05.097Z,24.27
2022-09-09T10:19:36.513Z,23.77
2022-09-09T10:22:22.768Z,24.34
2022-09-09T10:25:17.159Z,24.00
2022-09-09T10:28:06.472Z,24.80
2022-09-09T10:30:50.467Z,25.58
2022-09-09T10:33:33.426Z,25.39
2022-09-09T10:36:24.150Z,25.71
2022-09-09T10:39:03.356Z,26.40
2022-09-09T10:41:51.611Z,26.49
2022-09-09T10:44:40.708Z,26.59
2022-09-09T10:47:51.264Z,27.02
2022-09-09T10:51:00.692Z,26.71
2022-09-09T10:53:48.593Z,26.58
2022-09-09T10:56:22.459Z,27.39
2022-09-09T10:58:56.597Z,27.58
2022-09-09T11:01:34.501Z,27.20
2022-09-09T11:04:16.064Z,27.60
2022-09-09T11:06:53.467Z,28.16
2022-09-09T11:09:28.285Z,27.86
2022-09-09T11:12:00.657Z,27.41
2022-09-09T11:14:39.306Z,27.53
2022-09-09T11:17:17.581Z,27.83
2022-09-09T11:19:47.788Z,27.02
2022-09-09T11:22:31.164Z,25.82
2022-09-09T11:25:06.120Z,25.42
2022-09-09T11:27:52.941Z,25.59
2022-09-09T11:30:51.625Z,25.61
2022-09-09T11:34:16.577Z,25.21
2022-09-09T11:37:29.221Z,25.10
2022-09-09T11:40:20.433Z,24.98
2022-09-09T11:42:54.166Z,24.84
2022-09-09T11:45:28.369Z,25.01
2022-09-09T11:47:59.336Z,24.89
2022-09-09T11:50:35.814Z,24.98
2022-09-09T11:53:25.191Z,25.51
2022-09-09T11:56:08.113Z,26.03
2022-09-09T11:58:56.446Z,26.31
2022-09-09T12:01:38.318Z,26.73
2022-09-09T12:04:41.016Z,27.16
2022-09-09T12:07:32.952Z,26.30
2022-09-09T12:10:08.070Z,26.50
2022-09-09T12:12:43.811Z,25.43
2022-09-09T12:15:30.403Z,25.34
2022-09-09T12:18:03.883Z,25.05
2022-09-09T12:20:38.449Z,24.99
2022-09-09T12:23:31.961Z,24.88
2022-09-09T12:26:31.340Z,24.80
2022-09-09T12:29:26.946Z,24.67
2022-09-09T12:32:07.557Z,24.59
2022-09-09T12:34:43.090Z,24.69
2022-09-09T12:37:22.770Z,24.69
2022-09-09T12:39:57.757Z,24.77
2022-09-09T12:42:28.447Z,25.09
2022-09-09T12:45:02.279Z,25.13
2022-09-09T12:47:48.435Z,24.96
2022-09-09T12:50:26.876Z,24.87
2022-09-09T12:53:00.227Z,24.82
2022-09-09T12:55:34.631Z,24.81
2022-09-09T12:58:08.751Z,24.63
2022-09-09T13:00:38.558Z,24.02
2022-09-09T13:03:22.451Z,24.04
2022-09-09T13:05:53.214Z,24.03
2022-09-09T13:08:26.022Z,23.81
2022-09-09T13:11:03.268Z,23.75
2022-09-09T13:13:38.189Z,23.91
2022-09-09T13:16:23.385Z,24.09
2022-09-09T13:19:03.626Z,23.89
2022-09-09T13:21:38.391Z,23.88
2022-09-09T13:24:30.260Z,23.73
2022-09-09T13:27:03.012Z,24.08
2022-09-09T13:29:35.835Z,24.43
2022-09-09T13:32:09.284Z,24.89
2022-09-09T13:34:40.970Z,25.19
2022-09-09T13:37:26.454Z,25.33
2022-09-09T13:39:57.071Z,25.43
2022-09-09T13:42:29.488Z,25.38
2022-09-09T13:45:02.452Z,25.54
2022-09-09T13:47:35.467Z,25.72
2022-09-09T13:50:22.417Z,25.52
2022-09-09T13:52:52.562Z,25.24
2022-09-09T13:55:23.808Z,25.14
2022-09-09T13:57:57.993Z,24.88
2022-09-09T14:00:27.596Z,24.00
2022-09-09T14:02:57.080Z,23.74
2022-09-09T14:05:28.427Z,23.52
2022-09-09T14:07:57.683Z,23.32
2022-09-09T14:10:26.704Z,23.15
2022-09-09T14:12:55.796Z,23.11
2022-09-09T14:15:25.144Z,23.19
2022-09-09T14:17:54.602Z,23.19
2022-09-09T14:20:24.479Z,23.22
2022-09-09T14:22:55.899Z,23.22
2022-09-09T14:25:25.757Z,23.17
2022-09-09T14:27:54.896Z,23.02
2022-09-09T14:30:24.049Z,23.01
2022-09-09T14:32:53.265Z,22.85
2022-09-09T14:35:23.272Z,22.82
2022-09-09T14:37:52.977Z,22.72
2022-09-09T14:40:26.301Z,22.69
2022-09-09T14:42:57.412Z,22.55
2022-09-09T14:45:27.706Z,22.45
2022-09-09T14:47:58.387Z,22.39
2022-09-09T14:50:28.011Z,22.32
2022-09-09T14:52:57.211Z,22.22
2022-09-09T14:55:30.187Z,22.10
2022-09-09T14:57:59.792Z,22.08
2022-09-09T15:00:30.218Z,22.02
2022-09-09T15:02:59.827Z,22.02
2022-09-09T15:05:30.614Z,22.05
2022-09-09T15:08:00.833Z,22.00
2022-09-09T15:10:32.520Z,21.95
2022-09-09T15:13:01.749Z,21.88
2022-09-09T15:15:31.303Z,21.83
2022-09-09T15:18:00.495Z,21.87
2022-09-09T15:20:35.023Z,21.78
2022-09-09T15:23:10.273Z,21.61
2022-09-09T15:25:41.001Z,21.43
2022-09-09T15:28:11.073Z,21.32
2022-09-09T15:30:40.220Z,21.24
2022-09-09T15:33:12.981Z,21.08
2022-09-09T15:35:42.333Z,20.92
2022-09-09T15:38:11.578Z,20.57
2022-09-09T15:40:42.438Z,20.35
2022-09-09T15:43:14.473Z,20.24
2022-09-09T15:45:43.817Z,20.10
2022-09-09T15:48:12.882Z,19.97
2022-09-09T15:50:41.956Z,19.96
2022-09-09T15:53:12.135Z,20.04
2022-09-09T15:55:42.527Z,20.11
2022-09-09T15:58:13.318Z,20.20
2022-09-09T16:00:42.289Z,20.21
2022-09-09T16:03:13.299Z,20.18
2022-09-09T16:05:45.245Z,20.29
2022-09-09T16:08:14.424Z,20.33
2022-09-09T16:10:46.206Z,20.35
2022-09-09T16:13:15.947Z,20.25
2022-09-09T16:15:46.408Z,20.08
2022-09-09T16:18:16.478Z,19.79
2022-09-09T16:20:55.115Z,19.59
2022-09-09T16:23:25.603Z,19.56
2022-09-09T16:26:00.468Z,19.53
2022-09-09T16:28:33.145Z,19.52
2022-09-09T16:31:07.507Z,19.55
2022-09-09T16:33:36.637Z,19.65
2022-09-09T16:36:10.204Z,19.56
2022-09-09T16:38:40.008Z,19.47
2022-09-09T16:41:13.575Z,19.28
2022-09-09T16:43:43.401Z,19.12
2022-09-09T16:46:17.587Z,19.08
2022-09-09T16:48:49.057Z,19.04
2022-09-09T16:51:21.639Z,18.94
2022-09-09T16:53:50.612Z,18.99
2022-09-09T16:56:28.062Z,18.90
2022-09-09T16:59:07.998Z,18.90
2022-09-09T17:01:41.834Z,18.81
2022-09-09T17:04:14.329Z,18.69
2022-09-09T17:06:44.340Z,18.71
2022-09-09T17:09:22.833Z,18.75
2022-09-09T17:11:57.895Z,18.94
2022-09-09T17:14:51.870Z,18.82
2022-09-09T17:17:32.488Z,18.75
2022-09-09T17:20:07.371Z,18.71
2022-09-09T17:22:36.498Z,18.74
2022-09-09T17:25:06.936Z,18.67
2022-09-09T17:27:37.928Z,18.75
2022-09-09T17:30:08.251Z,18.72
2022-09-09T17:32:37.428Z,18.65
2022-09-09T17:35:07.616Z,18.52
2022-09-09T17:37:36.799Z,18.46
2022-09-09T17:40:07.659Z,18.31
2022-09-09T17:42:38.512Z,18.26
2022-09-09T17:45:08.691Z,18.27
2022-09-09T17:50:28.224Z,18.47
2022-09-09T17:53:04.994Z,18.61
2022-09-09T17:55:35.636Z,18.55
2022-09-09T17:58:06.574Z,18.32
2022-09-09T18:00:37.927Z,18.15
2022-09-09T18:03:12.417Z,18.16
2022-09-09T18:05:42.126Z,18.18
2022-09-09T18:08:11.613Z,18.32
2022-09-09T18:10:40.946Z,18.34
2022-09-09T18:13:11.283Z,18.25
2022-09-09T18:15:49.304Z,18.18
2022-09-09T18:18:18.877Z,18.13
2022-09-09T18:21:01.815Z,18.16
2022-09-09T18:23:47.310Z,18.13
2022-09-09T18:30:50.341Z,18.11
2022-09-09T18:33:20.026Z,17.98
2022-09-09T18:35:51.459Z,18.01
2022-09-09T18:38:21.547Z,17.93
2022-09-09T18:40:50.960Z,17.93
2022-09-09T18:43:20.053Z,18.01
2022-09-09T18:45:50.433Z,18.03
2022-09-09T18:48:19.536Z,17.98
2022-09-09T18:50:48.551Z,17.86
2022-09-09T18:53:17.565Z,17.80
2022-09-09T18:56:15.554Z,17.84
2022-09-09T18:58:51.756Z,17.77
2022-09-09T19:01:27.906Z,17.79
2022-09-09T19:03:58.743Z,17.84
2022-09-09T19:06:34.890Z,17.93
2022-09-09T19:09:05.517Z,18.18
2022-09-09T19:11:36.572Z,18.20
2022-09-09T19:14:10.580Z,18.10
2022-09-09T19:16:41.745Z,18.02
2022-09-09T19:19:16.472Z,18.01
2022-09-09T19:21:46.369Z,17.88
2022-09-09T19:24:19.056Z,17.81
2022-09-09T19:26:52.296Z,17.76
2022-09-09T19:29:24.855Z,17.72
2022-09-09T19:34:46.846Z,17.51
2022-09-09T19:37:18.609Z,17.59
2022-09-09T19:39:48.146Z,17.70
2022-09-09T19:42:17.559Z,17.77
2022-09-09T19:44:46.637Z,17.71
2022-09-09T19:47:17.890Z,17.80
2022-09-09T19:49:47.723Z,17.67
2022-09-09T19:52:18.787Z,17.61
2022-09-09T19:55:35.676Z,17.50
2022-09-09T19:58:06.513Z,17.43
2022-09-09T20:07:10.588Z,17.72
2022-09-09T20:09:39.975Z,17.73
2022-09-09T20:12:10.106Z,17.70
2022-09-09T20:19:12.977Z,17.56
2022-09-09T20:21:59.382Z,17.60
2022-09-09T20:24:29.413Z,17.57
2022-09-09T20:27:03.085Z,17.63
2022-09-09T20:29:35.275Z,17.54
2022-09-09T20:32:07.131Z,17.49
2022-09-09T20:34:37.601Z,17.50
2022-09-09T20:37:07.252Z,17.59
2022-09-09T20:39:37.343Z,17.70
2022-09-09T20:42:07.921Z,17.70
2022-09-09T20:44:37.194Z,17.74
2022-09-09T20:47:07.203Z,17.83
2022-09-09T20:49:37.751Z,17.77
2022-09-09T20:52:07.005Z,17.59
2022-09-09T20:54:37.600Z,17.52
2022-09-09T20:57:07.248Z,17.27
2022-09-09T20:59:37.165Z,17.23
2022-09-09T21:02:06.562Z,17.30
2022-09-09T21:04:38.421Z,17.26
2022-09-09T21:07:07.587Z,17.25
2022-09-09T21:09:36.573Z,16.97
2022-09-09T21:12:05.840Z,16.66
2022-09-09T21:14:34.861Z,16.55
2022-09-09T21:17:04.374Z,16.46
2022-09-09T21:19:33.281Z,16.41
2022-09-09T21:22:03.828Z,16.36
2022-09-09T21:24:32.860Z,16.34
2022-09-09T21:27:01.899Z,16.37
2022-09-09T21:29:31.471Z,16.32
2022-09-09T21:32:03.620Z,16.25
2022-09-09T21:34:35.440Z,16.24
2022-09-09T21:37:06.008Z,16.32
2022-09-09T21:39:35.461Z,16.37
2022-09-09T21:42:04.640Z,16.50
2022-09-09T21:44:33.702Z,16.57
2022-09-09T21:47:03.039Z,16.53
2022-09-09T21:49:32.109Z,16.42
2022-09-09T21:52:01.099Z,16.40
2022-09-09T21:54:32.537Z,16.44
2022-09-09T21:57:01.593Z,16.49
2022-09-09T21:59:32.187Z,16.47
2022-09-09T22:02:01.752Z,16.46
2022-09-09T22:04:30.959Z,16.47
2022-09-09T22:06:59.876Z,16.54
2022-09-09T22:09:29.104Z,16.49
2022-09-09T22:11:59.496Z,16.48
2022-09-09T22:14:29.424Z,16.50
2022-09-09T22:16:58.708Z,16.55
2022-09-09T22:19:27.677Z,16.53
2022-09-09T22:21:56.609Z,16.56
2022-09-09T22:24:27.664Z,16.53
2022-09-09T22:26:56.553Z,16.55
2022-09-09T22:29:27.071Z,16.56
2022-09-09T22:31:56.247Z,16.58
2022-09-09T22:34:28.344Z,16.58
2022-09-09T22:36:57.267Z,16.54
2022-09-09T22:39:26.400Z,16.56
2022-09-09T22:41:56.063Z,16.55
2022-09-09T22:44:27.499Z,16.57
2022-09-09T22:46:57.405Z,16.59
2022-09-09T22:49:27.113Z,16.59
2022-09-09T22:51:56.181Z,16.61
2022-09-09T22:57:02.898Z,16.69
2022-09-09T22:59:33.465Z,16.69
2022-09-09T23:02:02.699Z,16.60
2022-09-09T23:04:31.633Z,16.60
2022-09-09T23:07:00.985Z,16.59
2022-09-09T23:09:30.179Z,16.57
2022-09-09T23:11:59.196Z,16.59
2022-09-09T23:14:28.241Z,16.61
2022-09-09T23:16:59.235Z,16.61
2022-09-09T23:19:28.776Z,16.57
2022-09-09T23:21:58.399Z,16.57
2022-09-09T23:24:27.910Z,16.54
2022-09-09T23:26:56.924Z,16.56
2022-09-09T23:29:25.873Z,16.53
2022-09-09T23:31:54.774Z,16.65
2022-09-09T23:34:25.171Z,16.63
2022-09-09T23:51:15.021Z,16.41
2022-09-09T23:53:45.579Z,16.41
2022-09-09T23:56:14.539Z,16.45
2022-09-09T23:58:43.479Z,16.40
